Time;durP1;ratioP1;P1;durP2;ratioP2;P2;SDS_P1;SDS_P2;PMS_P1;PMS_P2;Temp;Humidity;BMP_temperature;BMP_pressure;BME280_temperature;BME280_humidity;BME280_pressure;Samples;Min_cycle;Max_cycle;Signal;HPM_P1;HPM_P2
2023/09/26 00:02:06;;;;;;;0.30;0.30;;;16.90;99.90;;;;;;5012526;28;20490;-80
2023/09/26 00:04:32;;;;;;;0.00;0.00;;;16.80;99.90;;;;;;5012670;28;20018;-83
2023/09/26 00:07:00;;;;;;;0.00;0.00;;;16.70;99.90;;;;;;5012347;28;20466;-82
2023/09/26 00:09:30;;;;;;;0.00;0.00;;;16.60;99.90;;;;;;5012518;28;20470;-83
2023/09/26 00:11:56;;;;;;;0.00;0.00;;;16.70;99.90;;;;;;5012233;28;20033;-76
2023/09/26 00:14:22;;;;;;;0.10;0.10;;;16.70;99.90;;;;;;5012057;28;20042;-76
2023/09/26 00:16:48;;;;;;;0.00;0.00;;;16.50;99.90;;;;;;5012272;28;20090;-78
2023/09/26 00:19:13;;;;;;;0.00;0.00;;;16.40;99.90;;;;;;5011132;28;20054;-79
2023/09/26 00:21:41;;;;;;;0.00;0.00;;;16.40;99.90;;;;;;5012202;28;20436;-83
2023/09/26 00:24:07;;;;;;;0.00;0.00;;;16.40;99.90;;;;;;5012146;28;20029;-82
2023/09/26 00:26:32;;;;;;;0.10;0.10;;;16.40;99.90;;;;;;5012374;28;20486;-81
2023/09/26 00:28:58;;;;;;;0.32;0.32;;;16.60;99.90;;;;;;5011805;28;20052;-79
2023/09/26 00:31:24;;;;;;;0.00;0.00;;;16.60;99.90;;;;;;5011094;28;20348;-79
2023/09/26 00:33:50;;;;;;;0.00;0.00;;;16.80;99.90;;;;;;5012213;28;20057;-79
2023/09/26 00:36:16;;;;;;;0.00;0.00;;;16.90;99.90;;;;;;5010663;28;20038;-83
2023/09/26 00:38:41;;;;;;;0.00;0.00;;;17.00;99.90;;;;;;5012047;28;20030;-84
2023/09/26 00:41:07;;;;;;;0.00;0.00;;;16.90;99.90;;;;;;5010316;28;20029;-83
2023/09/26 00:43:35;;;;;;;0.00;0.00;;;16.80;99.90;;;;;;5010807;28;20496;-79
2023/09/26 00:46:04;;;;;;;0.00;0.00;;;16.80;99.90;;;;;;5010220;28;20101;-82
2023/09/26 00:48:31;;;;;;;0.00;0.00;;;16.90;99.90;;;;;;5011863;28;20025;-83
2023/09/26 00:50:57;;;;;;;2.70;1.70;;;16.90;99.90;;;;;;5011649;28;20030;-83
2023/09/26 00:53:28;;;;;;;0.00;0.00;;;16.70;99.90;;;;;;5010535;28;20036;-79
2023/09/26 00:55:57;;;;;;;0.10;0.10;;;16.60;99.90;;;;;;5009946;28;20083;-78
2023/09/26 00:58:25;;;;;;;0.00;0.00;;;16.60;99.90;;;;;;5012663;28;20033;-80
2023/09/26 01:00:53;;;;;;;0.00;0.00;;;16.70;99.90;;;;;;5011577;28;20026;-83
2023/09/26 01:03:20;;;;;;;0.25;0.25;;;16.80;99.90;;;;;;5011476;28;20436;-80
2023/09/26 01:05:47;;;;;;;0.00;0.00;;;16.70;99.90;;;;;;5010548;28;20075;-79
2023/09/26 01:08:12;;;;;;;0.10;0.10;;;16.60;99.90;;;;;;5011444;28;20026;-82
2023/09/26 01:10:39;;;;;;;0.00;0.00;;;16.50;99.90;;;;;;5010232;28;20106;-83
2023/09/26 01:13:05;;;;;;;0.00;0.00;;;16.60;99.90;;;;;;5010981;28;20026;-83
2023/09/26 01:15:39;;;;;;;0.00;0.00;;;16.40;99.90;;;;;;5010129;28;20375;-81
2023/09/26 01:18:10;;;;;;;0.00;0.00;;;16.30;99.90;;;;;;5010207;28;20026;-82
2023/09/26 01:20:40;;;;;;;0.00;0.00;;;16.30;99.90;;;;;;5011344;28;20151;-82
2023/09/26 01:23:06;;;;;;;0.13;0.13;;;16.10;99.90;;;;;;4993657;28;20037;-82
2023/09/26 01:25:35;;;;;;;0.00;0.00;;;16.10;99.90;;;;;;5010177;28;20385;-81
2023/09/26 01:28:06;;;;;;;0.00;0.00;;;16.30;99.90;;;;;;5009838;28;20030;-81
2023/09/26 01:30:37;;;;;;;0.28;0.28;;;16.30;99.90;;;;;;5009860;28;20034;-83
2023/09/26 01:33:19;;;;;;;0.00;0.00;;;16.40;99.90;;;;;;5011238;28;20450;-76
2023/09/26 01:35:45;;;;;;;0.00;0.00;;;16.40;99.90;;;;;;5011192;28;20064;-82
2023/09/26 01:38:11;;;;;;;0.15;0.15;;;16.30;99.90;;;;;;5009819;28;20038;-80
2023/09/26 01:40:37;;;;;;;0.00;0.00;;;16.30;99.90;;;;;;5025636;28;20369;-83
2023/09/26 01:43:03;;;;;;;0.00;0.00;;;16.40;99.90;;;;;;5011150;28;20026;-84
2023/09/26 01:45:29;;;;;;;0.00;0.00;;;16.40;99.90;;;;;;5011052;28;20025;-83
2023/09/26 01:47:55;;;;;;;0.52;0.52;;;16.50;99.90;;;;;;5011049;28;20463;-79
2023/09/26 01:50:21;;;;;;;0.00;0.00;;;16.30;99.90;;;;;;5026044;28;20041;-83
2023/09/26 01:52:47;;;;;;;0.00;0.00;;;16.20;99.90;;;;;;5010873;28;20025;-83
2023/09/26 01:55:19;;;;;;;0.00;0.00;;;16.20;99.90;;;;;;4992945;28;20026;-83
2023/09/26 01:57:46;;;;;;;0.10;0.10;;;16.40;99.90;;;;;;5025197;28;20038;-80
2023/09/26 02:00:13;;;;;;;0.00;0.00;;;16.00;99.90;;;;;;5009351;28;21227;-81
2023/09/26 02:02:45;;;;;;;1.60;0.90;;;16.10;99.90;;;;;;5010491;28;20071;-83
2023/09/26 02:05:15;;;;;;;0.00;0.00;;;16.00;99.90;;;;;;5010881;28;20386;-82
2023/09/26 02:07:40;;;;;;;0.00;0.00;;;16.00;99.90;;;;;;5009124;28;20087;-82
2023/09/26 02:10:07;;;;;;;0.00;0.00;;;16.20;99.90;;;;;;5001676;28;20034;-82
2023/09/26 02:12:38;;;;;;;0.10;0.10;;;16.20;99.90;;;;;;5004662;28;20038;-83
2023/09/26 02:15:07;;;;;;;0.00;0.00;;;15.90;99.90;;;;;;5003883;28;20125;-83
2023/09/26 02:17:35;;;;;;;0.10;0.10;;;15.70;99.90;;;;;;5009073;28;20120;-81
2023/09/26 02:20:14;;;;;;;0.05;0.05;;;15.80;99.90;;;;;;4988487;28;20022;-83
2023/09/26 02:22:45;;;;;;;0.00;0.00;;;15.50;99.90;;;;;;5008999;28;20412;-78
2023/09/26 02:25:11;;;;;;;0.08;0.08;;;15.60;99.90;;;;;;5008882;28;20034;-81
2023/09/26 02:27:42;;;;;;;0.00;0.00;;;15.60;99.90;;;;;;5010290;28;20029;-78
2023/09/26 02:30:10;;;;;;;0.00;0.00;;;15.90;99.90;;;;;;5010297;28;20050;-77
2023/09/26 02:32:36;;;;;;;0.00;0.00;;;15.90;99.90;;;;;;5042603;28;20061;-79
2023/09/26 02:35:03;;;;;;;0.00;0.00;;;15.90;99.90;;;;;;5008011;28;20022;-81
2023/09/26 02:37:30;;;;;;;0.00;0.00;;;15.90;99.90;;;;;;5008764;28;20044;-82
2023/09/26 02:39:55;;;;;;;0.00;0.00;;;16.00;99.90;;;;;;5009676;28;20079;-79
2023/09/26 02:42:21;;;;;;;0.20;0.20;;;15.90;99.90;;;;;;5010189;28;20121;-83
2023/09/26 02:44:47;;;;;;;0.00;0.00;;;15.90;99.90;;;;;;5000324;28;20023;-83
2023/09/26 02:47:13;;;;;;;0.00;0.00;;;15.90;99.90;;;;;;5009868;28;20030;-81
2023/09/26 02:49:38;;;;;;;0.00;0.00;;;16.00;99.90;;;;;;5008903;28;20489;-82
2023/09/26 02:52:04;;;;;;;2.83;2.63;;;16.10;99.90;;;;;;5008654;28;20026;-81
2023/09/26 02:54:30;;;;;;;2.10;0.95;;;16.20;99.90;;;;;;5009641;28;20033;-80
2023/09/26 02:56:58;;;;;;;0.00;0.00;;;16.20;99.90;;;;;;5009984;28;20127;-83
2023/09/26 02:59:23;;;;;;;0.22;0.22;;;16.20;99.90;;;;;;5009553;28;20429;-83
2023/09/26 03:01:50;;;;;;;3.45;3.22;;;16.20;99.90;;;;;;5009705;28;20254;-78
2023/09/26 03:04:16;;;;;;;0.00;0.00;;;16.10;99.90;;;;;;5008716;28;20090;-81
2023/09/26 03:06:42;;;;;;;0.10;0.10;;;16.10;99.90;;;;;;4992879;28;20494;-81
2023/09/26 03:09:08;;;;;;;0.10;0.10;;;16.20;99.90;;;;;;5027783;28;20033;-79
2023/09/26 03:11:34;;;;;;;0.00;0.00;;;16.30;99.90;;;;;;5013440;28;20327;-82
2023/09/26 03:14:00;;;;;;;0.00;0.00;;;16.30;99.90;;;;;;5012083;28;20142;-83
2023/09/26 03:16:25;;;;;;;0.05;0.05;;;16.40;99.90;;;;;;5013178;28;20450;-79
2023/09/26 03:18:55;;;;;;;0.00;0.00;;;16.40;99.90;;;;;;5012430;28;20479;-83
2023/09/26 03:21:21;;;;;;;0.00;0.00;;;16.30;99.90;;;;;;5028125;28;20032;-83
2023/09/26 03:23:47;;;;;;;0.10;0.10;;;16.40;99.90;;;;;;5011797;28;20022;-82
2023/09/26 03:26:14;;;;;;;0.00;0.00;;;16.40;99.90;;;;;;5013033;28;20053;-84
2023/09/26 03:28:40;;;;;;;0.00;0.00;;;16.30;99.90;;;;;;5012011;28;20030;-83
2023/09/26 03:31:10;;;;;;;1.05;0.95;;;16.20;99.90;;;;;;5011691;28;20382;-80
2023/09/26 03:33:37;;;;;;;0.00;0.00;;;16.00;99.90;;;;;;4995640;28;20094;-82
2023/09/26 03:36:03;;;;;;;0.00;0.00;;;15.80;99.90;;;;;;5013040;28;20406;-81
2023/09/26 03:38:30;;;;;;;0.00;0.00;;;15.70;99.90;;;;;;5011125;28;20057;-83
2023/09/26 03:41:01;;;;;;;0.10;0.10;;;15.80;99.90;;;;;;5012833;28;20079;-83
2023/09/26 03:43:28;;;;;;;0.00;0.00;;;15.90;99.90;;;;;;5012774;28;20482;-82
2023/09/26 03:46:00;;;;;;;0.03;0.03;;;16.00;99.90;;;;;;5012939;28;20077;-84
2023/09/26 03:48:26;;;;;;;0.00;0.00;;;16.00;99.90;;;;;;5011274;28;20510;-80
2023/09/26 03:50:52;;;;;;;0.10;0.10;;;16.00;99.90;;;;;;5011269;28;20029;-79
2023/09/26 03:53:18;;;;;;;0.00;0.00;;;16.00;99.90;;;;;;5012357;28;20033;-82
2023/09/26 03:55:52;;;;;;;0.00;0.00;;;16.10;99.90;;;;;;5011260;28;20042;-77
2023/09/26 03:58:18;;;;;;;0.00;0.00;;;16.20;99.90;;;;;;5011226;28;20030;-77
2023/09/26 04:00:43;;;;;;;0.00;0.00;;;16.20;99.90;;;;;;5012200;28;20459;-82
2023/09/26 04:03:09;;;;;;;0.00;0.00;;;15.90;99.90;;;;;;5012860;28;20033;-81
2023/09/26 04:05:35;;;;;;;0.10;0.10;;;16.00;99.90;;;;;;5010581;28;20036;-83
2023/09/26 04:08:00;;;;;;;0.00;0.00;;;16.00;99.90;;;;;;5012404;28;20021;-82
2023/09/26 04:10:26;;;;;;;0.00;0.00;;;16.10;99.90;;;;;;5027453;28;20022;-79
2023/09/26 04:12:52;;;;;;;0.82;0.82;;;16.10;99.90;;;;;;5012154;28;20042;-82
2023/09/26 04:15:18;;;;;;;0.00;0.00;;;16.00;99.90;;;;;;5012158;28;20022;-80
2023/09/26 04:17:45;;;;;;;0.00;0.00;;;15.80;99.90;;;;;;5011045;28;20103;-80
2023/09/26 04:20:16;;;;;;;0.00;0.00;;;15.90;99.90;;;;;;5010016;28;20025;-80
2023/09/26 04:22:42;;;;;;;0.00;0.00;;;15.90;99.90;;;;;;5012211;28;20470;-82
2023/09/26 04:25:08;;;;;;;0.00;0.00;;;15.90;99.90;;;;;;5012199;28;20040;-82
2023/09/26 04:27:34;;;;;;;0.38;0.38;;;15.90;99.90;;;;;;5010895;28;20046;-83
2023/09/26 04:30:00;;;;;;;0.00;0.00;;;15.90;99.90;;;;;;5010716;28;20113;-83
2023/09/26 04:32:26;;;;;;;0.00;0.00;;;15.90;99.90;;;;;;5012051;28;20034;-82
2023/09/26 04:34:52;;;;;;;0.00;0.00;;;15.80;99.90;;;;;;5011654;28;20074;-83
2023/09/26 04:37:18;;;;;;;0.00;0.00;;;15.70;99.90;;;;;;5012069;28;20030;-83
2023/09/26 04:39:44;;;;;;;0.00;0.00;;;15.70;99.90;;;;;;5011782;28;20382;-81
2023/09/26 04:42:10;;;;;;;1.38;1.27;;;15.70;99.90;;;;;;5012329;28;20022;-78
2023/09/26 04:44:35;;;;;;;0.00;0.00;;;15.80;99.90;;;;;;5011927;28;20038;-79
2023/09/26 04:47:01;;;;;;;0.00;0.00;;;15.90;99.90;;;;;;5012014;28;20022;-83
2023/09/26 04:49:27;;;;;;;0.00;0.00;;;15.70;99.90;;;;;;5010362;28;20463;-83
2023/09/26 04:51:53;;;;;;;0.55;0.55;;;15.70;99.90;;;;;;5011803;28;20030;-81
2023/09/26 04:54:18;;;;;;;0.00;0.00;;;15.70;99.90;;;;;;5011930;28;20026;-77
2023/09/26 04:56:45;;;;;;;0.00;0.00;;;15.60;99.90;;;;;;5011692;28;20140;-84
2023/09/26 04:59:11;;;;;;;0.00;0.00;;;15.60;99.90;;;;;;5011739;28;20014;-83
2023/09/26 05:01:37;;;;;;;0.00;0.00;;;15.70;99.90;;;;;;5011276;28;20057;-82
2023/09/26 05:04:03;;;;;;;0.00;0.00;;;15.60;99.90;;;;;;5011627;28;20030;-82
2023/09/26 05:06:29;;;;;;;0.00;0.00;;;15.60;99.90;;;;;;5011706;28;20035;-83
2023/09/26 05:08:55;;;;;;;0.00;0.00;;;15.60;99.90;;;;;;5011409;28;20484;-82
2023/09/26 05:11:21;;;;;;;0.00;0.00;;;15.60;99.90;;;;;;5011596;28;20120;-84
2023/09/26 05:13:47;;;;;;;0.00;0.00;;;15.60;99.90;;;;;;5011814;28;20030;-80
2023/09/26 05:16:14;;;;;;;0.00;0.00;;;15.60;99.90;;;;;;5010980;28;20026;-82
2023/09/26 05:18:40;;;;;;;0.03;0.03;;;15.60;99.90;;;;;;5011284;28;20033;-82
2023/09/26 05:21:07;;;;;;;0.00;0.00;;;15.60;99.90;;;;;;5011415;28;20030;-80
2023/09/26 05:23:33;;;;;;;0.10;0.10;;;15.70;99.90;;;;;;5011258;28;20105;-83
2023/09/26 05:26:05;;;;;;;0.10;0.10;;;15.70;99.90;;;;;;5011214;28;20156;-81
2023/09/26 05:28:31;;;;;;;0.22;0.22;;;15.70;99.90;;;;;;5010245;28;20033;-83
2023/09/26 05:30:57;;;;;;;0.00;0.00;;;15.70;99.90;;;;;;5010351;28;20021;-82
2023/09/26 05:33:22;;;;;;;0.00;0.00;;;15.70;99.90;;;;;;5011021;28;20060;-83
2023/09/26 05:35:48;;;;;;;0.00;0.00;;;15.80;99.90;;;;;;5009774;28;20033;-82
2023/09/26 05:38:14;;;;;;;0.00;0.00;;;15.60;99.90;;;;;;5010230;28;20121;-81
2023/09/26 05:40:40;;;;;;;0.00;0.00;;;15.50;99.90;;;;;;5025551;28;20023;-81
2023/09/26 05:43:05;;;;;;;0.00;0.00;;;15.60;99.90;;;;;;5025978;28;20100;-81
2023/09/26 05:45:31;;;;;;;0.00;0.00;;;15.70;99.90;;;;;;5022494;27;20030;-77
2023/09/26 05:47:57;;;;;;;0.00;0.00;;;15.70;99.90;;;;;;5029651;28;20456;-80
2023/09/26 05:50:23;;;;;;;0.00;0.00;;;15.80;99.90;;;;;;5021539;28;20018;-80
2023/09/26 05:52:49;;;;;;;0.00;0.00;;;15.90;99.90;;;;;;5015748;28;20405;-81
2023/09/26 05:55:15;;;;;;;0.03;0.03;;;15.90;99.90;;;;;;5067825;28;20018;-78
2023/09/26 05:57:41;;;;;;;0.00;0.00;;;15.90;99.90;;;;;;5029018;28;20394;-80
2023/09/26 06:00:12;;;;;;;0.20;0.20;;;15.80;99.90;;;;;;5051905;28;20024;-79
2023/09/26 06:02:47;;;;;;;0.00;0.00;;;15.60;99.90;;;;;;5060312;28;20430;-69
2023/09/26 06:05:12;;;;;;;0.05;0.05;;;15.60;99.90;;;;;;5052223;28;20385;-69
2023/09/26 06:07:38;;;;;;;0.10;0.10;;;15.70;99.90;;;;;;5050593;28;20022;-70
2023/09/26 06:10:05;;;;;;;0.00;0.00;;;15.70;99.90;;;;;;5057714;28;20519;-69
2023/09/26 06:12:30;;;;;;;0.00;0.00;;;15.80;99.90;;;;;;5060176;28;20025;-69
2023/09/26 06:14:56;;;;;;;0.00;0.00;;;15.80;99.90;;;;;;5053773;28;20035;-70
2023/09/26 06:17:23;;;;;;;1.08;1.02;;;15.80;99.90;;;;;;5049833;28;20486;-69
2023/09/26 06:19:48;;;;;;;0.10;0.10;;;15.90;99.90;;;;;;5065499;28;20043;-70
2023/09/26 06:22:15;;;;;;;0.35;0.35;;;15.80;99.90;;;;;;5063644;28;20033;-69
2023/09/26 06:24:40;;;;;;;0.00;0.00;;;15.90;99.90;;;;;;5057348;28;20021;-70
2023/09/26 06:27:07;;;;;;;0.00;0.00;;;15.70;99.90;;;;;;5051464;28;20033;-69
2023/09/26 06:29:32;;;;;;;0.08;0.08;;;15.80;99.90;;;;;;5050546;28;20037;-70
2023/09/26 06:31:58;;;;;;;0.00;0.00;;;15.90;99.90;;;;;;5065332;28;20029;-69
2023/09/26 06:34:24;;;;;;;0.20;0.20;;;15.90;99.90;;;;;;5062812;28;20489;-69
2023/09/26 06:36:51;;;;;;;0.05;0.05;;;15.80;99.90;;;;;;5045557;28;20118;-69
2023/09/26 06:39:17;;;;;;;0.00;0.00;;;15.90;99.90;;;;;;5051770;28;20029;-70
2023/09/26 06:41:43;;;;;;;0.00;0.00;;;16.10;99.90;;;;;;5051078;28;20091;-69
2023/09/26 06:44:11;;;;;;;0.08;0.08;;;16.10;99.90;;;;;;5064417;28;20107;-70
2023/09/26 06:46:37;;;;;;;0.10;0.10;;;16.30;99.90;;;;;;5058415;28;20025;-71
2023/09/26 06:49:03;;;;;;;0.60;0.60;;;16.40;99.90;;;;;;5053124;28;20029;-69
2023/09/26 06:51:30;;;;;;;0.00;0.00;;;16.40;99.90;;;;;;5050983;28;20044;-71
2023/09/26 06:53:56;;;;;;;0.10;0.10;;;16.60;99.90;;;;;;5049701;28;20469;-69
2023/09/26 06:56:22;;;;;;;0.00;0.00;;;16.50;99.90;;;;;;5041836;28;20056;-70
2023/09/26 06:58:48;;;;;;;0.00;0.00;;;16.70;99.90;;;;;;5037771;28;20363;-69
2023/09/26 07:01:15;;;;;;;0.00;0.00;;;16.80;99.90;;;;;;5032737;28;20068;-71
2023/09/26 07:03:41;;;;;;;0.00;0.00;;;16.90;99.90;;;;;;5047326;28;20031;-69
2023/09/26 07:06:10;;;;;;;0.00;0.00;;;16.80;99.90;;;;;;5049481;28;20465;-69
2023/09/26 07:08:39;;;;;;;0.00;0.00;;;17.00;99.90;;;;;;5052653;28;20413;-69
2023/09/26 07:11:09;;;;;;;0.00;0.00;;;16.80;99.90;;;;;;5057305;28;20466;-69
2023/09/26 07:13:35;;;;;;;0.10;0.10;;;17.00;99.90;;;;;;5045759;28;20037;-69
2023/09/26 07:16:04;;;;;;;0.00;0.00;;;17.10;99.90;;;;;;5038604;28;20457;-69
2023/09/26 07:18:33;;;;;;;0.00;0.00;;;17.10;99.90;;;;;;5043606;28;20036;-70
2023/09/26 07:21:03;;;;;;;0.00;0.00;;;17.30;99.90;;;;;;5050091;28;20032;-69
2023/09/26 07:23:29;;;;;;;0.28;0.28;;;17.30;99.90;;;;;;5029046;28;20394;-69
2023/09/26 07:26:07;;;;;;;0.00;0.00;;;17.50;99.90;;;;;;5023424;28;20029;-69
2023/09/26 07:28:33;;;;;;;2.00;1.00;;;17.60;99.90;;;;;;5019193;28;20025;-69
2023/09/26 07:30:58;;;;;;;0.08;0.08;;;17.60;99.90;;;;;;5018100;28;20148;-70
2023/09/26 07:33:26;;;;;;;0.38;0.38;;;17.50;99.90;;;;;;5017625;28;20081;-70
2023/09/26 07:35:52;;;;;;;0.00;0.00;;;17.50;99.90;;;;;;5018681;28;20467;-71
2023/09/26 07:38:18;;;;;;;5.38;0.55;;;17.20;99.90;;;;;;5019620;28;20483;-69
2023/09/26 07:40:44;;;;;;;1.63;0.60;;;17.20;99.90;;;;;;5017950;28;20048;-70
2023/09/26 07:43:09;;;;;;;0.22;0.20;;;17.30;99.90;;;;;;5020202;28;20481;-70
2023/09/26 07:45:39;;;;;;;4.10;1.70;;;17.30;99.90;;;;;;5017934;28;20033;-69
2023/09/26 07:48:05;;;;;;;2.60;2.30;;;17.10;99.90;;;;;;5020233;28;20029;-69
2023/09/26 07:50:31;;;;;;;0.00;0.00;;;17.30;99.90;;;;;;5017833;28;20049;-69
2023/09/26 07:52:57;;;;;;;0.10;0.10;;;17.50;99.90;;;;;;5018955;28;20037;-70
2023/09/26 07:55:24;;;;;;;0.00;0.00;;;17.70;99.90;;;;;;5018852;28;20356;-69
2023/09/26 07:57:50;;;;;;;0.00;0.00;;;17.80;99.90;;;;;;5017199;28;20120;-69
2023/09/26 08:00:15;;;;;;;0.40;0.40;;;17.90;99.90;;;;;;5019991;28;20026;-70
2023/09/26 08:02:41;;;;;;;1.05;0.95;;;17.90;99.90;;;;;;5030202;28;20091;-69
2023/09/26 08:05:08;;;;;;;7.68;1.65;;;17.80;99.90;;;;;;5034401;28;20108;-69
2023/09/26 08:07:34;;;;;;;0.00;0.00;;;17.60;99.90;;;;;;5034642;28;20523;-70
2023/09/26 08:10:03;;;;;;;0.00;0.00;;;17.70;99.90;;;;;;5034626;28;20112;-70
2023/09/26 08:12:30;;;;;;;0.40;0.40;;;18.00;99.90;;;;;;5034327;28;20022;-70
2023/09/26 08:14:57;;;;;;;3.97;3.72;;;18.10;99.90;;;;;;5034563;28;20040;-70
2023/09/26 08:17:23;;;;;;;2.90;1.02;;;18.20;99.90;;;;;;5034508;28;20025;-69
2023/09/26 08:19:49;;;;;;;0.00;0.00;;;18.10;99.90;;;;;;5034262;28;20116;-69
2023/09/26 08:22:14;;;;;;;2.83;1.65;;;18.20;99.90;;;;;;5034281;28;20133;-70
2023/09/26 08:24:40;;;;;;;3.38;0.98;;;18.00;99.90;;;;;;5033097;28;20033;-70
2023/09/26 08:27:06;;;;;;;0.30;0.30;;;18.00;99.90;;;;;;5033971;28;20083;-69
2023/09/26 08:29:32;;;;;;;0.13;0.13;;;18.00;99.90;;;;;;5034039;28;20382;-70
2023/09/26 08:31:58;;;;;;;1.08;0.98;;;17.90;99.90;;;;;;5034343;28;20128;-70
2023/09/26 08:34:24;;;;;;;0.10;0.10;;;17.90;99.90;;;;;;5034334;28;20037;-69
2023/09/26 08:36:52;;;;;;;0.00;0.00;;;18.00;99.90;;;;;;5034257;28;20496;-69
2023/09/26 08:39:18;;;;;;;1.65;1.45;;;17.90;99.90;;;;;;5034092;28;20079;-70
2023/09/26 08:41:47;;;;;;;0.25;0.22;;;18.00;99.90;;;;;;5033376;28;20474;-69
2023/09/26 08:44:13;;;;;;;0.00;0.00;;;18.20;99.90;;;;;;5033057;28;20421;-69
2023/09/26 08:46:45;;;;;;;0.20;0.20;;;18.20;99.90;;;;;;5033811;28;20036;-70
2023/09/26 08:49:10;;;;;;;;;;;18.40;99.90;;;;;;5033218;28;20033;-69
2023/09/26 08:51:37;;;;;;;0.65;0.52;;;18.50;99.90;;;;;;5032444;28;20317;-69
2023/09/26 08:54:03;;;;;;;0.00;0.00;;;18.70;99.90;;;;;;5033644;28;20117;-70
2023/09/26 08:56:32;;;;;;;0.00;0.00;;;18.70;99.90;;;;;;5033749;28;20378;-69
2023/09/26 08:59:01;;;;;;;0.00;0.00;;;18.70;99.90;;;;;;5033877;28;20134;-70
2023/09/26 09:01:27;;;;;;;0.00;0.00;;;18.70;99.90;;;;;;5033342;28;20033;-70
2023/09/26 09:03:52;;;;;;;0.75;0.20;;;18.90;99.90;;;;;;5033441;28;20030;-69
2023/09/26 09:06:18;;;;;;;0.32;0.32;;;18.80;99.90;;;;;;5027184;28;20029;-68
2023/09/26 09:08:44;;;;;;;1.27;1.17;;;18.90;99.90;;;;;;5032130;28;20025;-69
2023/09/26 09:11:11;;;;;;;0.30;0.30;;;18.90;99.90;;;;;;5031706;28;20389;-69
2023/09/26 09:13:38;;;;;;;0.10;0.10;;;19.00;99.90;;;;;;5033631;28;20030;-70
2023/09/26 09:16:08;;;;;;;0.00;0.00;;;18.90;99.90;;;;;;5033213;28;20147;-69
2023/09/26 09:18:35;;;;;;;0.00;0.00;;;18.80;99.90;;;;;;5033343;28;20027;-70
2023/09/26 09:21:11;;;;;;;0.20;0.20;;;19.10;99.90;;;;;;5032927;28;20037;-69
2023/09/26 09:23:46;;;;;;;0.00;0.00;;;18.90;99.90;;;;;;5032179;28;20470;-69
2023/09/26 09:26:12;;;;;;;6.30;4.28;;;19.00;99.90;;;;;;5032851;28;20030;-69
2023/09/26 09:28:38;;;;;;;0.25;0.25;;;19.00;99.90;;;;;;5033090;28;20025;-69
2023/09/26 09:31:04;;;;;;;0.00;0.00;;;19.30;99.90;;;;;;5033165;28;20053;-70
2023/09/26 09:33:31;;;;;;;0.00;0.00;;;19.60;99.90;;;;;;5033281;28;20059;-69
2023/09/26 09:35:57;;;;;;;0.17;0.17;;;19.80;99.90;;;;;;5032881;28;20437;-69
2023/09/26 09:38:23;;;;;;;0.15;0.15;;;19.70;99.90;;;;;;5032941;28;20359;-70
2023/09/26 09:40:50;;;;;;;0.00;0.00;;;19.60;99.90;;;;;;5032557;28;20080;-69
2023/09/26 09:43:16;;;;;;;0.13;0.13;;;20.00;99.90;;;;;;5032935;28;20029;-69
2023/09/26 09:45:43;;;;;;;0.00;0.00;;;20.00;99.90;;;;;;5033576;28;20083;-70
2023/09/26 09:48:09;;;;;;;0.00;0.00;;;20.10;99.90;;;;;;5032434;28;20063;-69
2023/09/26 09:50:39;;;;;;;0.00;0.00;;;20.00;99.90;;;;;;5032896;28;20113;-68
2023/09/26 09:53:06;;;;;;;0.00;0.00;;;20.10;99.90;;;;;;5032764;28;20441;-71
2023/09/26 09:55:38;;;;;;;0.10;0.03;;;20.20;99.90;;;;;;5032660;28;20459;-71
2023/09/26 09:58:08;;;;;;;1.88;0.68;;;20.40;99.90;;;;;;5031988;28;20033;-70
2023/09/26 10:00:37;;;;;;;0.00;0.00;;;20.40;99.90;;;;;;5032365;28;20084;-69
2023/09/26 10:03:04;;;;;;;0.45;0.25;;;20.20;99.90;;;;;;5032516;28;20065;-69
2023/09/26 10:05:31;;;;;;;0.55;0.55;;;20.20;99.90;;;;;;5032789;28;20038;-71
2023/09/26 10:07:58;;;;;;;4.60;1.33;;;20.40;99.90;;;;;;5030751;28;20108;-75
2023/09/26 10:10:25;;;;;;;0.28;0.28;;;20.50;99.90;;;;;;5032403;28;20025;-68
2023/09/26 10:12:51;;;;;;;0.22;0.22;;;20.60;99.90;;;;;;5014450;28;20508;-69
2023/09/26 10:15:17;;;;;;;0.00;0.00;;;20.60;99.90;;;;;;5032461;28;20032;-70
2023/09/26 10:17:48;;;;;;;0.00;0.00;;;20.70;99.90;;;;;;5032482;28;20458;-70
2023/09/26 10:20:15;;;;;;;0.37;0.37;;;21.00;99.90;;;;;;5032472;28;20041;-70
2023/09/26 10:22:46;;;;;;;0.00;0.00;;;21.10;99.90;;;;;;5031487;28;20029;-69
2023/09/26 10:25:18;;;;;;;0.00;0.00;;;21.60;99.90;;;;;;5032853;28;20106;-70
2023/09/26 10:27:46;;;;;;;0.00;0.00;;;21.90;99.90;;;;;;5032060;28;20064;-69
2023/09/26 10:30:17;;;;;;;0.00;0.00;;;22.30;99.90;;;;;;5032042;28;20021;-69
2023/09/26 10:32:44;;;;;;;0.00;0.00;;;22.30;99.90;;;;;;5030786;28;20493;-71
2023/09/26 10:35:15;;;;;;;0.73;0.38;;;22.30;99.90;;;;;;5014818;28;20092;-69
2023/09/26 10:37:45;;;;;;;1.77;1.52;;;22.20;99.90;;;;;;5030194;28;20040;-69
2023/09/26 10:40:17;;;;;;;1.13;0.68;;;21.90;99.90;;;;;;5028815;28;20018;-69
2023/09/26 10:42:46;;;;;;;0.88;0.47;;;21.90;99.90;;;;;;5030649;28;20099;-69
2023/09/26 10:45:13;;;;;;;0.00;0.00;;;22.10;99.90;;;;;;5028774;28;20026;-69
2023/09/26 10:47:40;;;;;;;0.20;0.10;;;22.40;99.90;;;;;;5031244;28;20029;-69
2023/09/26 10:50:14;;;;;;;1.50;1.40;;;22.40;99.90;;;;;;5032459;28;20022;-71
2023/09/26 10:52:49;;;;;;;3.97;0.50;;;22.30;99.90;;;;;;5034361;28;20026;-69
2023/09/26 10:55:20;;;;;;;3.20;1.70;;;22.60;99.90;;;;;;5034331;28;20021;-69
2023/09/26 10:57:49;;;;;;;0.00;0.00;;;23.00;99.90;;;;;;5034115;28;20048;-70
2023/09/26 11:00:15;;;;;;;2.42;0.95;;;23.30;99.90;;;;;;5032183;28;20021;-69
2023/09/26 11:02:42;;;;;;;0.10;0.10;;;23.40;99.90;;;;;;5034203;28;20034;-68
2023/09/26 11:05:13;;;;;;;0.10;0.10;;;23.70;99.90;;;;;;5036289;28;20493;-70
2023/09/26 11:07:40;;;;;;;1.38;1.27;;;24.00;99.90;;;;;;5035487;28;20045;-70
2023/09/26 11:10:12;;;;;;;0.10;0.10;;;23.80;99.90;;;;;;5035692;28;20030;-69
2023/09/26 11:12:38;;;;;;;1.35;0.80;;;23.60;99.90;;;;;;5035367;28;20029;-69
2023/09/26 11:15:05;;;;;;;0.45;0.28;;;24.10;99.90;;;;;;5035389;28;20025;-69
2023/09/26 11:17:32;;;;;;;1.13;0.65;;;24.50;99.90;;;;;;5035731;28;20029;-70
2023/09/26 11:19:59;;;;;;;0.93;0.40;;;24.60;99.90;;;;;;5035399;28;20112;-70
2023/09/26 11:22:26;;;;;;;1.63;0.82;;;24.50;99.70;;;;;;5030656;28;20486;-69
2023/09/26 11:25:11;;;;;;;0.10;0.10;;;24.90;99.90;;;;;;5035245;28;20028;-69
2023/09/26 11:27:48;;;;;;;0.00;0.00;;;25.80;99.30;;;;;;5034990;28;20079;-69
2023/09/26 11:30:18;;;;;;;3.22;0.77;;;25.90;98.20;;;;;;5017328;28;20033;-69
2023/09/26 11:32:46;;;;;;;2.60;0.95;;;25.50;97.90;;;;;;5035358;28;20048;-71
2023/09/26 11:35:15;;;;;;;1.48;0.65;;;25.90;97.60;;;;;;5033600;28;20040;-69
2023/09/26 11:37:41;;;;;;;1.63;0.75;;;25.60;97.70;;;;;;5035250;28;20104;-69
2023/09/26 11:40:11;;;;;;;0.28;0.13;;;25.00;99.20;;;;;;5034975;28;20025;-70
2023/09/26 11:42:41;;;;;;;0.38;0.38;;;25.50;99.10;;;;;;5035211;28;20038;-69
2023/09/26 11:45:08;;;;;;;0.30;0.30;;;25.50;98.20;;;;;;5035005;28;20474;-69
2023/09/26 11:47:34;;;;;;;1.40;0.70;;;25.60;97.20;;;;;;5035236;28;20037;-69
2023/09/26 11:50:00;;;;;;;1.42;0.57;;;24.90;98.70;;;;;;5034201;28;20520;-69
2023/09/26 11:52:26;;;;;;;1.30;0.52;;;25.00;99.00;;;;;;5035610;28;20026;-68
2023/09/26 11:54:52;;;;;;;0.10;0.10;;;24.90;99.30;;;;;;5031471;28;20417;-68
2023/09/26 11:57:18;;;;;;;0.08;0.08;;;25.00;99.30;;;;;;5017741;28;20546;-68
2023/09/26 11:59:44;;;;;;;0.10;0.10;;;25.30;99.50;;;;;;5023201;28;20045;-68
2023/09/26 12:02:10;;;;;;;0.25;0.25;;;26.20;98.60;;;;;;5018941;28;20077;-68
2023/09/26 12:04:36;;;;;;;0.10;0.00;;;26.40;98.10;;;;;;5034868;28;20029;-68
2023/09/26 12:07:03;;;;;;;0.35;0.35;;;26.40;96.90;;;;;;5034796;28;20032;-68
2023/09/26 12:09:29;;;;;;;0.47;0.43;;;26.70;97.40;;;;;;5110319;22;20049;-68
2023/09/26 12:11:55;;;;;;;4.55;0.82;;;27.10;97.00;;;;;;4995035;28;20038;-69
2023/09/26 12:14:22;;;;;;;0.30;0.30;;;27.20;96.30;;;;;;4995450;28;20105;-68
2023/09/26 12:16:51;;;;;;;0.38;0.38;;;27.00;96.30;;;;;;4995369;28;20031;-68
2023/09/26 12:19:19;;;;;;;2.38;0.88;;;26.70;96.80;;;;;;4994687;28;20472;-70
2023/09/26 12:21:46;;;;;;;0.00;0.00;;;27.00;97.20;;;;;;4995191;28;20038;-68
2023/09/26 12:24:13;;;;;;;0.20;0.20;;;28.10;95.70;;;;;;4994761;28;20030;-69
2023/09/26 12:26:41;;;;;;;7.93;1.05;;;27.60;95.30;;;;;;4993950;28;20022;-69
2023/09/26 12:29:07;;;;;;;0.20;0.20;;;27.30;95.80;;;;;;4993296;28;20026;-69
2023/09/26 12:31:33;;;;;;;0.22;0.22;;;27.80;96.60;;;;;;4992622;28;20034;-69
2023/09/26 12:34:02;;;;;;;0.03;0.03;;;28.00;94.60;;;;;;4993398;28;20038;-68
2023/09/26 12:36:31;;;;;;;0.55;0.38;;;27.70;93.30;;;;;;4992983;28;20041;-68
2023/09/26 12:38:57;;;;;;;0.00;0.00;;;27.50;92.60;;;;;;4993952;28;20054;-69
2023/09/26 12:41:24;;;;;;;3.78;3.25;;;27.70;92.60;;;;;;4992701;28;20550;-68
2023/09/26 12:43:50;;;;;;;0.00;0.00;;;28.00;92.60;;;;;;4994278;28;20414;-68
2023/09/26 12:46:16;;;;;;;0.38;0.38;;;28.60;91.40;;;;;;4993605;28;20022;-70
2023/09/26 12:48:41;;;;;;;0.10;0.10;;;28.10;90.50;;;;;;4993046;28;20042;-69